Latest Weather Observations for Thredbo Top Station

IDN60901

Issued at 5:01 pm EDT Tuesday 9 February 2016 (issued every 10 minutes, with the page automatically refreshed every 10 minutes)

About weather observations | Map of Canberra area stations | Latest observations for Canberra area | Other Formats
Station Details ID: 071032 Name: THREDBO AWS Lat: -36.49 Lon: 148.29 Height: 1957.0 m
Data from the previous 72 hours. | See also: Recent months at Thredbo Top Station
Date/Time
EDT
Tmp

°C
App
Tmp
°C
Dew
Point
°C
Rel
Hum
%
Delta-T

°C
Wind Press
QNH
hPa
Press
MSL
hPa
Rain
since
9 am
mm
Dir
 
Spd
km/h
Gust
km/h
Spd
kts
Gust
kts
09/05:00pm 17.8 15.1 7.2 50 5.9 WNW 11 19 6 10 1026.8 1018.1 0.0
09/04:30pm 17.7 15.6 8.3 54 5.3 WNW 9 19 5 10 1027.0 1018.4 0.0
09/04:00pm 17.9 15.4 8.2 53 5.5 WNW 11 22 6 12 1027.1 1018.5 0.0
09/03:30pm 18.4 15.7 10.5 60 4.7 WNW 15 24 8 13 1027.4 1018.8 0.0
09/03:00pm 18.0 14.7 9.4 57 5.0 NW 17 30 9 16 1027.6 1019.0 0.0
09/02:30pm 17.1 13.1 8.3 56 5.0 NW 19 32 10 17 1027.9 1019.3 0.0
09/02:00pm 17.6 13.3 7.9 53 5.4 NW 20 39 11 21 1027.7 1019.1 0.0
09/01:30pm 17.1 12.9 8.3 56 5.0 NW 20 30 11 16 1028.0 1019.4 0.0
09/01:00pm 16.8 11.8 8.2 57 4.8 NW 24 35 13 19 1027.7 1019.1 0.0
09/12:30pm 16.5 11.0 9.0 61 4.3 NW 28 37 15 20 1028.0 1019.4 0.0
09/12:00pm 15.7 10.4 8.4 62 4.1 NW 26 37 14 20 1028.2 1019.6 0.0
09/11:30am 15.9 10.8 9.1 64 3.9 NW 26 35 14 19 1028.5 1019.9 0.0
09/11:00am 15.9 12.0 9.6 66 3.6 WNW 20 28 11 15 1028.6 1020.0 0.0
09/10:30am 15.2 11.4 8.9 66 3.6 WNW 19 30 10 16 1028.6 1020.0 0.0
09/10:00am 15.0 12.3 9.1 68 3.3 WNW 13 30 7 16 1028.6 1020.0 0.0
09/09:30am 14.8 11.9 9.8 72 2.9 W 15 26 8 14 1028.6 1020.0 0.0
09/09:00am 14.9 12.1 8.6 66 3.5 WNW 13 24 7 13 1028.3 1019.8 0.0
09/08:30am 14.3 11.7 7.8 65 3.6 WNW 11 19 6 10 1028.2 1019.6 0.0
09/08:00am 13.7 11.3 6.8 63 3.7 W 9 15 5 8 1028.1 1019.5 0.0
09/07:30am 12.5 9.6 6.5 67 3.2 WNW 11 15 6 8 1027.9 1019.3 0.0
09/07:00am 10.4 7.1 6.2 75 2.2 WNW 13 15 7 8 1027.6 1019.0 0.0
09/06:30am 9.2 5.2 5.0 75 2.1 WNW 15 17 8 9 1027.4 1018.8 0.0
09/06:00am 11.6 8.7 6.5 71 2.7 W 11 13 6 7 1027.3 1018.6 0.0
09/05:30am 11.1 8.8 5.8 70 2.8 WSW 7 9 4 5 1027.0 1018.4 0.0
09/05:00am 11.0 8.9 5.7 70 2.7 WSW 6 7 3 4 1026.9 1018.3 0.0
09/04:30am 11.2 9.2 4.4 63 3.4 SW 4 4 2 2 1026.9 1018.3 0.0
09/04:00am 9.5 7.9 4.5 71 2.5 WSW 2 4 1 2 1026.9 1018.3 0.0
09/03:30am 8.3 7.0 6.1 86 1.1 NW 2 7 1 4 1026.9 1018.3 0.0
09/03:00am 8.2 6.1 6.7 90 0.8 WNW 7 9 4 5 1027.1 1018.5 0.0
09/02:30am 7.6 5.1 6.7 94 0.5 NW 9 11 5 6 1027.4 1018.8 0.0
09/02:00am 8.4 6.7 7.6 95 0.4 NW 6 9 3 5 1027.6 1019.0 0.0
09/01:30am 8.1 6.5 7.8 98 0.2 NW 6 7 3 4 1027.9 1019.3 0.0
09/01:00am 8.1 6.4 7.5 96 0.3 NW 6 6 3 3 1028.1 1019.5 0.0
09/12:30am 8.9 8.3 8.8 99 0.1 N 2 6 1 3 1028.2 1019.6 0.0
09/12:00am 9.8 9.8 9.7 99 0.1 CALM 0 4 0 2 1028.5 1019.9 0.0
 
Date/Time
EDT
Tmp

°C
App
Tmp
°C
Dew
Point
°C
Rel
Hum
%
Delta-T

°C
Wind Press
QNH
hPa
Press
MSL
hPa
Rain
since
9 am
mm
Dir
 
Spd
km/h
Gust
km/h
Spd
kts
Gust
kts
08/11:30pm 9.6 7.4 9.5 99 0.1 N 11 13 6 7 1028.5 1019.9 0.0
08/11:00pm 9.6 8.4 9.5 99 0.1 NNW 6 13 3 7 1028.7 1020.1 0.0
08/10:30pm 10.3 8.6 9.7 96 0.3 NNE 9 11 5 6 1029.1 1020.5 0.0
08/10:00pm 11.5 9.2 10.6 94 0.5 NE 13 19 7 10 1029.0 1020.4 0.0
08/09:30pm 11.9 10.9 10.3 90 0.9 NNE 6 9 3 5 1028.8 1020.3 0.0
08/09:00pm 12.1 11.8 10.2 88 1.1 NNE 2 6 1 3 1028.6 1020.0 0.0
08/08:30pm 12.7 12.4 10.2 85 1.4 N 2 7 1 4 1028.5 1019.9 0.0
08/08:00pm 13.9 13.7 10.3 79 2.1 ESE 2 6 1 3 1028.3 1019.8 0.0
08/07:30pm 15.6 14.8 11.2 75 2.6 S 6 13 3 7 1028.3 1019.8 0.0
08/07:00pm 16.8 15.9 10.6 67 3.6 SSE 6 9 3 5 1028.0 1019.4 0.0
08/06:30pm 17.4 15.9 9.3 59 4.7 S 7 11 4 6 1027.9 1019.3 0.0
08/06:00pm 16.6 16.0 8.8 60 4.4 SE 2 9 1 5 1027.7 1019.1 0.0
08/05:30pm 16.9 15.3 8.8 59 4.6 S 7 15 4 8 1027.9 1019.3 0.0
08/05:00pm 19.3 17.6 10.0 55 5.4 SE 9 26 5 14 1027.9 1019.3 0.0
08/04:30pm 19.4 15.8 2.7 33 8.6 WSW 11 24 6 13 1028.1 1019.5 0.0
08/04:00pm 18.8 15.2 4.9 40 7.4 SW 13 22 7 12 1028.2 1019.6 0.0
08/03:30pm 18.8 15.4 6.0 43 7.0 SSW 13 28 7 15 1028.3 1019.8 0.0
08/03:00pm 19.2 16.2 7.6 47 6.5 SW 13 28 7 15 1028.3 1019.8 0.0
08/02:30pm 18.4 15.3 8.7 53 5.6 SSW 15 24 8 13 1028.5 1019.9 0.0
08/02:00pm 17.9 14.6 8.2 53 5.5 SSW 15 32 8 17 1028.7 1020.1 0.0
08/01:30pm 18.2 14.8 9.3 56 5.1 SSW 17 32 9 17 1028.8 1020.3 0.0
08/01:00pm 17.3 13.1 8.4 56 5.0 SW 20 32 11 17 1028.8 1020.3 0.0
08/12:30pm 17.6 14.2 10.5 63 4.2 SSW 19 32 10 17 1029.0 1020.4 0.0
08/12:00pm 17.1 13.2 9.3 60 4.5 S 20 32 11 17 1029.2 1020.6 0.0
08/11:30am 16.2 10.8 7.9 58 4.6 SSE 26 41 14 22 1029.1 1020.5 0.0
08/11:00am 15.6 9.3 7.4 58 4.5 SSW 30 54 16 29 1029.1 1020.5 0.0
08/10:41am 15.6 9.8 8.1 61 4.2 S 28 46 15 25 1029.0 1020.4 0.0
08/10:30am 15.6 10.2 7.9 60 4.3 S 26 39 14 21 1029.0 1020.4 0.0
08/10:00am 16.0 11.2 7.5 57 4.7 S 22 41 12 22 1029.0 1020.4 0.0
08/09:30am 15.5 11.1 7.5 59 4.4 S 20 35 11 19 1028.8 1020.3 0.0
08/09:00am 14.6 10.2 6.7 59 4.2 S 19 28 10 15 1028.8 1020.3 0.0
08/08:30am 13.9 9.8 6.0 59 4.2 S 17 24 9 13 1028.7 1020.1 0.0
08/08:00am 13.2 8.9 5.4 59 4.1 S 17 24 9 13 1028.6 1020.0 0.0
08/07:30am 12.1 9.5 6.2 67 3.1 S 9 17 5 9 1028.3 1019.8 0.0
08/07:00am 11.0 8.8 6.2 72 2.5 SSW 7 13 4 7 1028.1 1019.5 0.0
08/06:30am 9.7 6.9 5.1 73 2.3 SW 9 13 5 7 1028.0 1019.4 0.0
08/06:00am 9.6 8.0 4.6 71 2.5 WSW 2 4 1 2 1027.6 1019.0 0.0
08/05:30am 8.0 6.5 2.9 70 2.4 CALM 0 4 0 2 1027.4 1018.8 0.0
08/05:00am 7.8 6.3 3.1 72 2.2 CALM 0 2 0 1 1027.5 1018.9 0.0
08/04:30am 7.8 6.4 3.3 73 2.2 CALM 0 2 0 1 1027.5 1018.9 0.0
08/04:00am 7.5 5.7 3.2 74 2.0 WNW 2 4 1 2 1027.5 1018.9 0.0
08/03:30am 7.5 5.8 2.0 68 2.6 CALM 0 2 0 1 1027.6 1019.0 0.0
08/03:00am 7.4 5.9 3.1 74 2.0 CALM 0 0 0 0 1027.7 1019.1 0.0
08/02:30am 7.8 5.4 2.3 68 2.6 NW 4 7 2 4 1027.7 1019.1 0.0
08/02:00am 8.3 6.3 2.1 65 2.9 NNW 2 4 1 2 1027.9 1019.3 0.0
08/01:30am 8.6 6.5 2.0 63 3.1 NNW 2 4 1 2 1027.9 1019.3 0.0
08/01:00am 8.3 6.7 2.3 66 2.8 CALM 0 4 0 2 1028.0 1019.4 0.0
08/12:30am 10.3 8.3 2.2 57 3.9 S 2 9 1 5 1028.2 1019.6 0.0
08/12:00am 11.4 7.3 2.2 53 4.4 SSE 13 24 7 13 1028.2 1019.6 0.0
 
Date/Time
EDT
Tmp

°C
App
Tmp
°C
Dew
Point
°C
Rel
Hum
%
Delta-T

°C
Wind Press
QNH
hPa
Press
MSL
hPa
Rain
since
9 am
mm
Dir
 
Spd
km/h
Gust
km/h
Spd
kts
Gust
kts
07/11:30pm 11.3 7.4 3.3 58 3.9 SSE 13 20 7 11 1028.2 1019.6 0.0
07/11:00pm 10.7 7.2 1.5 53 4.3 S 9 22 5 12 1028.2 1019.6 0.0
07/10:30pm 11.1 6.6 1.9 53 4.4 S 15 24 8 13 1028.2 1019.6 0.0
07/10:00pm 11.6 6.9 3.1 56 4.2 S 17 30 9 16 1028.2 1019.6 0.0
07/09:30pm 11.1 7.9 3.2 58 3.9 S 9 19 5 10 1028.0 1019.4 0.0
07/09:00pm 11.7 9.0 3.7 58 4.0 S 7 15 4 8 1027.7 1019.1 0.0
07/08:30pm 12.7 8.9 5.8 63 3.6 SSE 15 24 8 13 1027.4 1018.8 0.0
07/08:00pm 12.3 9.7 3.3 54 4.5 S 6 13 3 7 1027.1 1018.5 0.0
07/07:30pm 13.2 10.3 4.4 55 4.5 S 9 13 5 7 1026.8 1018.1 0.0
07/07:00pm 14.8 11.3 5.6 54 4.8 S 13 20 7 11 1026.3 1017.6 0.0
07/06:30pm 15.6 11.3 5.2 50 5.5 S 17 28 9 15 1026.0 1017.4 0.0
07/06:00pm 16.2 12.9 6.6 53 5.2 SSE 13 22 7 12 1025.9 1017.2 0.0
07/05:30pm 17.0 12.7 7.9 55 5.1 S 20 30 11 16 1025.8 1017.1 0.0
07/05:00pm 17.3 13.9 9.0 58 4.7 SSE 17 26 9 14 1025.7 1017.0 0.0
07/04:30pm 16.6 13.4 8.6 59 4.5 S 15 22 8 12 1025.8 1017.1 0.0
07/04:00pm 16.1 12.5 8.3 60 4.4 SSE 17 30 9 16 1025.7 1017.0 0.0
07/03:30pm 16.1 13.5 9.5 65 3.8 SSE 13 22 7 12 1025.7 1017.0 0.0
07/03:00pm 17.1 14.2 9.5 61 4.4 SSE 15 28 8 15 1025.8 1017.1 0.0
07/02:30pm 17.3 14.0 9.5 60 4.5 SSE 17 24 9 13 1025.8 1017.1 0.0
07/02:00pm 16.4 13.4 9.3 63 4.1 SSE 15 24 8 13 1025.8 1017.1 0.0
07/01:30pm 16.8 13.9 9.5 62 4.2 SSW 15 24 8 13 1025.8 1017.1 0.0
07/01:00pm 16.7 13.4 9.4 62 4.2 S 17 26 9 14 1025.8 1017.1 0.0
07/12:30pm 17.7 15.3 7.2 50 5.8 SE 9 19 5 10 1025.8 1017.1 0.0
07/12:00pm 16.8 14.3 8.2 57 4.8 SSE 11 22 6 12 1025.8 1017.1 0.0
07/11:30am 16.4 14.2 7.9 57 4.7 S 9 24 5 13 1025.9 1017.2 0.0
07/11:00am 15.9 12.0 7.1 56 4.8 S 17 26 9 14 1025.9 1017.2 0.0
07/10:30am 15.3 11.6 4.4 48 5.7 SSW 13 28 7 15 1026.0 1017.4 0.0
07/10:00am 15.4 12.4 5.9 53 5.1 SSW 11 20 6 11 1025.9 1017.2 0.0
07/09:30am 14.7 10.7 2.6 44 6.0 SSW 13 22 7 12 1025.8 1017.1 0.0
07/09:00am 13.7 10.4 8.1 69 3.1 SSW 15 24 8 13 1025.7 1017.0 0.0
07/08:30am 12.9 9.6 8.0 72 2.7 SSW 15 22 8 12 1025.6 1016.9 0.0
07/08:00am 12.4 9.4 9.4 82 1.7 SSW 15 20 8 11 1025.3 1016.6 0.0
07/07:30am 11.7 8.0 9.4 86 1.3 WSW 19 22 10 12 1025.2 1016.5 0.0
07/07:00am 11.1 7.5 8.3 83 1.5 WSW 17 20 9 11 1025.0 1016.2 0.0
07/06:30am 9.5 5.6 7.1 85 1.3 SW 17 19 9 10 1024.8 1016.1 0.0
07/06:00am 9.4 5.5 7.0 85 1.3 WSW 17 19 9 10 1024.6 1015.9 0.0
07/05:30am 9.8 5.5 7.2 84 1.4 WSW 19 22 10 12 1024.3 1015.6 0.0
07/05:00am 9.0 4.6 4.8 75 2.1 WSW 17 19 9 10 1024.2 1015.5 0.0
07/04:30am 9.5 6.6 4.9 73 2.3 W 9 13 5 7 1024.2 1015.5 0.0
07/04:00am 10.0 6.8 6.7 80 1.7 W 13 17 7 9 1024.2 1015.5 0.0
07/03:30am 9.4 6.1 6.5 82 1.5 W 13 17 7 9 1024.3 1015.6 0.0
07/03:00am 9.3 6.3 6.0 80 1.7 WNW 11 15 6 8 1024.3 1015.6 0.0
07/02:30am 7.3 5.0 4.8 84 1.2 WNW 6 7 3 4 1024.6 1015.9 0.0
07/02:00am 8.5 5.3 6.8 89 0.9 WNW 13 15 7 8 1024.6 1015.9 0.0
07/01:30am 9.2 5.3 7.0 86 1.2 WNW 17 19 9 10 1025.0 1016.2 0.0
07/01:00am 9.4 5.5 7.2 86 1.2 WNW 17 19 9 10 1025.2 1016.5 0.0
07/12:30am 9.3 6.6 7.3 87 1.1 NNW 11 15 6 8 1025.3 1016.6 0.0
07/12:00am 8.7 5.9 6.8 88 1.0 NW 11 17 6 9 1025.4 1016.7 0.0
 
Date/Time
EDT
Tmp

°C
App
Tmp
°C
Dew
Point
°C
Rel
Hum
%
Delta-T

°C
Wind Press
QNH
hPa
Press
MSL
hPa
Rain
since
9 am
mm
Dir
 
Spd
km/h
Gust
km/h
Spd
kts
Gust
kts
06/11:30pm 9.4 6.0 7.8 90 0.9 WNW 15 19 8 10 1025.3 1016.6 0.0
06/11:00pm 8.7 6.6 8.1 96 0.3 NW 9 15 5 8 1025.4 1016.7 0.0
06/10:30pm 8.9 6.8 8.1 95 0.4 NNW 9 11 5 6 1025.4 1016.7 0.0
06/10:00pm 8.2 6.4 8.1 99 0.1 NW 7 11 4 6 1025.6 1016.9 0.0
06/09:30pm 7.9 6.0 7.5 97 0.2 NNW 7 9 4 5 1025.3 1016.6 0.0
06/09:00pm 8.5 6.9 7.9 96 0.3 NNW 6 7 3 4 1025.1 1016.4 0.0
06/08:30pm 10.4 8.5 9.2 92 0.7 NNE 9 13 5 7 1024.8 1016.1 0.0
06/08:00pm 11.4 9.3 9.8 90 0.9 NE 11 15 6 8 1024.6 1015.9 0.0
06/07:30pm 12.1 10.0 9.7 85 1.4 ENE 11 15 6 8 1024.6 1015.9 0.0
06/07:00pm 13.3 10.9 10.1 81 1.8 ENE 13 17 7 9 1024.3 1015.6 0.0
06/06:30pm 13.3 10.7 9.5 78 2.2 ENE 13 20 7 11 1024.1 1015.4 0.0
06/06:00pm 14.4 11.4 9.2 71 2.9 ENE 15 24 8 13 1023.9 1015.1 0.0
06/05:30pm 15.7 13.1 9.4 66 3.6 ENE 13 19 7 10 1023.9 1015.1 0.0

Latest Capital City Observations: Canberra | Sydney | Melbourne | Brisbane | Adelaide | Perth | Hobart | Darwin

Other Formats:

Comma delimited format used in spreadsheet applications
http://www.bom.gov.au/fwo/IDN60903/IDN60903.95909.axf

JavaScript Object Notation format (JSON) in row-major order
http://www.bom.gov.au/fwo/IDN60903/IDN60903.95909.json